sensor_id;sensor_type;location;lat;lon;timestamp;temperature;humidity
22716;DHT22;11525;51.152;4.456;2023-05-21T00:02:08;14.60;99.90
22716;DHT22;11525;51.152;4.456;2023-05-21T00:04:36;14.60;99.90
22716;DHT22;11525;51.152;4.456;2023-05-21T00:07:05;14.70;99.90
22716;DHT22;11525;51.152;4.456;2023-05-21T00:09:31;14.70;99.90
22716;DHT22;11525;51.152;4.456;2023-05-21T00:11:57;14.70;99.90
22716;DHT22;11525;51.152;4.456;2023-05-21T00:14:22;14.60;99.90
22716;DHT22;11525;51.152;4.456;2023-05-21T00:16:48;14.60;99.90
22716;DHT22;11525;51.152;4.456;2023-05-21T00:19:14;14.40;99.90
22716;DHT22;11525;51.152;4.456;2023-05-21T00:21:39;14.40;99.90
22716;DHT22;11525;51.152;4.456;2023-05-21T00:24:06;14.50;99.90
22716;DHT22;11525;51.152;4.456;2023-05-21T00:26:31;14.50;99.90
22716;DHT22;11525;51.152;4.456;2023-05-21T00:28:57;14.40;99.90
22716;DHT22;11525;51.152;4.456;2023-05-21T00:31:23;14.40;99.90
22716;DHT22;11525;51.152;4.456;2023-05-21T00:33:48;14.40;99.90
22716;DHT22;11525;51.152;4.456;2023-05-21T00:36:15;14.30;99.90
22716;DHT22;11525;51.152;4.456;2023-05-21T00:38:41;14.30;99.90
22716;DHT22;11525;51.152;4.456;2023-05-21T00:41:10;14.30;99.90
22716;DHT22;11525;51.152;4.456;2023-05-21T00:43:37;14.30;99.90
22716;DHT22;11525;51.152;4.456;2023-05-21T00:46:07;14.30;99.90
22716;DHT22;11525;51.152;4.456;2023-05-21T00:48:36;14.30;99.90
22716;DHT22;11525;51.152;4.456;2023-05-21T00:51:03;14.20;99.90
22716;DHT22;11525;51.152;4.456;2023-05-21T00:53:29;14.20;99.90
22716;DHT22;11525;51.152;4.456;2023-05-21T00:55:56;14.20;99.90
22716;DHT22;11525;51.152;4.456;2023-05-21T00:58:22;14.10;99.90
22716;DHT22;11525;51.152;4.456;2023-05-21T01:00:48;14.20;99.90
22716;DHT22;11525;51.152;4.456;2023-05-21T01:03:13;14.10;99.90
22716;DHT22;11525;51.152;4.456;2023-05-21T01:05:41;14.00;99.90
22716;DHT22;11525;51.152;4.456;2023-05-21T01:08:09;14.00;99.90
22716;DHT22;11525;51.152;4.456;2023-05-21T01:10:35;14.00;99.90
22716;DHT22;11525;51.152;4.456;2023-05-21T01:13:01;13.90;99.90
22716;DHT22;11525;51.152;4.456;2023-05-21T01:15:27;14.00;99.90
22716;DHT22;11525;51.152;4.456;2023-05-21T01:17:53;13.90;99.90
22716;DHT22;11525;51.152;4.456;2023-05-21T01:20:22;13.80;99.90
22716;DHT22;11525;51.152;4.456;2023-05-21T01:22:53;13.80;99.90
22716;DHT22;11525;51.152;4.456;2023-05-21T01:25:19;13.70;99.90
22716;DHT22;11525;51.152;4.456;2023-05-21T01:27:45;13.70;99.90
22716;DHT22;11525;51.152;4.456;2023-05-21T01:30:12;13.80;99.90
22716;DHT22;11525;51.152;4.456;2023-05-21T01:35:21;13.80;99.90
22716;DHT22;11525;51.152;4.456;2023-05-21T01:40:46;13.70;99.90
22716;DHT22;11525;51.152;4.456;2023-05-21T01:43:13;13.70;99.90
22716;DHT22;11525;51.152;4.456;2023-05-21T01:45:41;13.60;99.90
22716;DHT22;11525;51.152;4.456;2023-05-21T01:48:08;13.70;99.90
22716;DHT22;11525;51.152;4.456;2023-05-21T01:50:38;13.70;99.90
22716;DHT22;11525;51.152;4.456;2023-05-21T01:53:05;13.70;99.90
22716;DHT22;11525;51.152;4.456;2023-05-21T01:55:31;13.70;99.90
22716;DHT22;11525;51.152;4.456;2023-05-21T01:57:58;13.60;99.90
22716;DHT22;11525;51.152;4.456;2023-05-21T02:00:25;13.70;99.90
22716;DHT22;11525;51.152;4.456;2023-05-21T02:02:57;13.70;99.90
22716;DHT22;11525;51.152;4.456;2023-05-21T02:05:25;13.60;99.90
22716;DHT22;11525;51.152;4.456;2023-05-21T02:07:51;13.60;99.90
22716;DHT22;11525;51.152;4.456;2023-05-21T02:10:17;13.60;99.90
22716;DHT22;11525;51.152;4.456;2023-05-21T02:12:43;13.60;99.90
22716;DHT22;11525;51.152;4.456;2023-05-21T02:15:09;13.60;99.90
22716;DHT22;11525;51.152;4.456;2023-05-21T02:17:35;13.60;99.90
22716;DHT22;11525;51.152;4.456;2023-05-21T02:20:03;13.70;99.90
22716;DHT22;11525;51.152;4.456;2023-05-21T02:22:39;13.60;99.90
22716;DHT22;11525;51.152;4.456;2023-05-21T02:25:06;13.60;99.90
22716;DHT22;11525;51.152;4.456;2023-05-21T02:27:34;13.60;99.90
22716;DHT22;11525;51.152;4.456;2023-05-21T02:30:02;13.60;99.90
22716;DHT22;11525;51.152;4.456;2023-05-21T02:32:28;13.60;99.90
22716;DHT22;11525;51.152;4.456;2023-05-21T02:34:56;13.50;99.90
22716;DHT22;11525;51.152;4.456;2023-05-21T02:37:23;13.50;99.90
22716;DHT22;11525;51.152;4.456;2023-05-21T02:39:49;13.50;99.90
22716;DHT22;11525;51.152;4.456;2023-05-21T02:42:15;13.50;99.90
22716;DHT22;11525;51.152;4.456;2023-05-21T02:44:41;13.50;99.90
22716;DHT22;11525;51.152;4.456;2023-05-21T02:47:06;13.50;99.90
22716;DHT22;11525;51.152;4.456;2023-05-21T02:49:34;13.50;99.90
22716;DHT22;11525;51.152;4.456;2023-05-21T02:52:00;13.40;99.90
22716;DHT22;11525;51.152;4.456;2023-05-21T02:54:26;13.40;99.90
22716;DHT22;11525;51.152;4.456;2023-05-21T02:56:51;13.40;99.90
22716;DHT22;11525;51.152;4.456;2023-05-21T02:59:17;13.30;99.90
22716;DHT22;11525;51.152;4.456;2023-05-21T03:01:43;13.30;99.90
22716;DHT22;11525;51.152;4.456;2023-05-21T03:04:09;13.30;99.90
22716;DHT22;11525;51.152;4.456;2023-05-21T03:06:35;13.20;99.90
22716;DHT22;11525;51.152;4.456;2023-05-21T03:09:02;13.20;99.90
22716;DHT22;11525;51.152;4.456;2023-05-21T03:11:27;13.20;99.90
22716;DHT22;11525;51.152;4.456;2023-05-21T03:13:53;13.20;99.90
22716;DHT22;11525;51.152;4.456;2023-05-21T03:16:19;13.10;99.90
22716;DHT22;11525;51.152;4.456;2023-05-21T03:18:44;13.10;99.90
22716;DHT22;11525;51.152;4.456;2023-05-21T03:21:10;13.10;99.90
22716;DHT22;11525;51.152;4.456;2023-05-21T03:23:40;13.20;99.90
22716;DHT22;11525;51.152;4.456;2023-05-21T03:26:07;13.20;99.90
22716;DHT22;11525;51.152;4.456;2023-05-21T03:28:34;13.20;99.90
22716;DHT22;11525;51.152;4.456;2023-05-21T03:31:00;13.30;99.90
22716;DHT22;11525;51.152;4.456;2023-05-21T03:33:25;13.20;99.90
22716;DHT22;11525;51.152;4.456;2023-05-21T03:35:51;13.20;99.90
22716;DHT22;11525;51.152;4.456;2023-05-21T03:38:17;13.20;99.90
22716;DHT22;11525;51.152;4.456;2023-05-21T03:40:42;13.10;99.90
22716;DHT22;11525;51.152;4.456;2023-05-21T03:43:08;13.20;99.90
22716;DHT22;11525;51.152;4.456;2023-05-21T03:45:34;13.20;99.90
22716;DHT22;11525;51.152;4.456;2023-05-21T03:48:00;13.10;99.90
22716;DHT22;11525;51.152;4.456;2023-05-21T03:50:26;13.20;99.90
22716;DHT22;11525;51.152;4.456;2023-05-21T03:52:52;13.10;99.90
22716;DHT22;11525;51.152;4.456;2023-05-21T03:55:18;13.10;99.90
22716;DHT22;11525;51.152;4.456;2023-05-21T03:57:43;13.20;99.90
22716;DHT22;11525;51.152;4.456;2023-05-21T04:00:09;13.20;99.90
22716;DHT22;11525;51.152;4.456;2023-05-21T04:02:35;13.30;99.90
22716;DHT22;11525;51.152;4.456;2023-05-21T04:05:01;13.30;99.90
22716;DHT22;11525;51.152;4.456;2023-05-21T04:07:27;13.40;99.90
22716;DHT22;11525;51.152;4.456;2023-05-21T04:09:54;13.50;99.90
22716;DHT22;11525;51.152;4.456;2023-05-21T04:12:20;13.50;99.90
22716;DHT22;11525;51.152;4.456;2023-05-21T04:14:46;13.40;99.90
22716;DHT22;11525;51.152;4.456;2023-05-21T04:17:12;13.40;99.90
22716;DHT22;11525;51.152;4.456;2023-05-21T04:19:38;13.40;99.90
22716;DHT22;11525;51.152;4.456;2023-05-21T04:22:04;13.50;99.90
22716;DHT22;11525;51.152;4.456;2023-05-21T04:24:30;13.50;99.90
22716;DHT22;11525;51.152;4.456;2023-05-21T04:26:56;13.50;99.90
22716;DHT22;11525;51.152;4.456;2023-05-21T04:29:26;13.60;99.90
22716;DHT22;11525;51.152;4.456;2023-05-21T04:31:51;13.60;99.90
22716;DHT22;11525;51.152;4.456;2023-05-21T04:34:17;13.60;99.90
22716;DHT22;11525;51.152;4.456;2023-05-21T04:36:44;13.60;99.90
22716;DHT22;11525;51.152;4.456;2023-05-21T04:39:10;13.70;99.90
22716;DHT22;11525;51.152;4.456;2023-05-21T04:41:37;13.80;99.90
22716;DHT22;11525;51.152;4.456;2023-05-21T04:44:06;13.90;99.90
22716;DHT22;11525;51.152;4.456;2023-05-21T04:46:32;13.90;99.90
22716;DHT22;11525;51.152;4.456;2023-05-21T04:48:59;13.90;99.90
22716;DHT22;11525;51.152;4.456;2023-05-21T04:51:29;14.00;99.90
22716;DHT22;11525;51.152;4.456;2023-05-21T04:53:54;14.10;99.90
22716;DHT22;11525;51.152;4.456;2023-05-21T04:56:20;14.10;99.90
22716;DHT22;11525;51.152;4.456;2023-05-21T04:58:56;14.10;99.90
22716;DHT22;11525;51.152;4.456;2023-05-21T05:01:23;14.20;99.90
22716;DHT22;11525;51.152;4.456;2023-05-21T05:03:50;14.20;99.90
22716;DHT22;11525;51.152;4.456;2023-05-21T05:06:16;14.20;99.90
22716;DHT22;11525;51.152;4.456;2023-05-21T05:08:42;14.30;99.90
22716;DHT22;11525;51.152;4.456;2023-05-21T05:11:08;14.50;99.90
22716;DHT22;11525;51.152;4.456;2023-05-21T05:13:34;14.70;99.90
22716;DHT22;11525;51.152;4.456;2023-05-21T05:16:00;14.80;99.90
22716;DHT22;11525;51.152;4.456;2023-05-21T05:18:26;14.80;99.90
22716;DHT22;11525;51.152;4.456;2023-05-21T05:20:51;14.80;99.90
22716;DHT22;11525;51.152;4.456;2023-05-21T05:23:17;14.70;99.90
22716;DHT22;11525;51.152;4.456;2023-05-21T05:25:43;14.80;99.90
22716;DHT22;11525;51.152;4.456;2023-05-21T05:28:09;14.80;99.90
22716;DHT22;11525;51.152;4.456;2023-05-21T05:30:35;14.90;99.90
22716;DHT22;11525;51.152;4.456;2023-05-21T05:33:00;15.00;99.90
22716;DHT22;11525;51.152;4.456;2023-05-21T05:35:26;15.10;99.90
22716;DHT22;11525;51.152;4.456;2023-05-21T05:37:52;15.20;99.90
22716;DHT22;11525;51.152;4.456;2023-05-21T05:40:17;15.10;99.90
22716;DHT22;11525;51.152;4.456;2023-05-21T05:42:43;15.30;99.90
22716;DHT22;11525;51.152;4.456;2023-05-21T05:45:09;15.40;99.90
22716;DHT22;11525;51.152;4.456;2023-05-21T05:47:35;15.50;99.90
22716;DHT22;11525;51.152;4.456;2023-05-21T05:50:01;15.60;99.90
22716;DHT22;11525;51.152;4.456;2023-05-21T05:52:26;15.60;99.90
22716;DHT22;11525;51.152;4.456;2023-05-21T05:54:52;15.80;99.90
22716;DHT22;11525;51.152;4.456;2023-05-21T05:57:17;16.00;99.90
22716;DHT22;11525;51.152;4.456;2023-05-21T05:59:43;16.20;99.90
22716;DHT22;11525;51.152;4.456;2023-05-21T06:02:09;16.50;99.90
22716;DHT22;11525;51.152;4.456;2023-05-21T06:04:34;16.40;99.90
22716;DHT22;11525;51.152;4.456;2023-05-21T06:07:00;16.20;99.90
22716;DHT22;11525;51.152;4.456;2023-05-21T06:09:26;16.40;99.90
22716;DHT22;11525;51.152;4.456;2023-05-21T06:11:51;16.60;99.90
22716;DHT22;11525;51.152;4.456;2023-05-21T06:14:17;16.90;99.90
22716;DHT22;11525;51.152;4.456;2023-05-21T06:16:43;17.30;99.90
22716;DHT22;11525;51.152;4.456;2023-05-21T06:19:09;17.40;99.90
22716;DHT22;11525;51.152;4.456;2023-05-21T06:21:34;17.40;99.90
22716;DHT22;11525;51.152;4.456;2023-05-21T06:24:00;17.80;99.90
22716;DHT22;11525;51.152;4.456;2023-05-21T06:26:25;18.00;99.90
22716;DHT22;11525;51.152;4.456;2023-05-21T06:28:51;18.00;99.90
22716;DHT22;11525;51.152;4.456;2023-05-21T06:31:17;18.10;99.90
22716;DHT22;11525;51.152;4.456;2023-05-21T06:33:43;17.90;99.90
22716;DHT22;11525;51.152;4.456;2023-05-21T06:36:08;18.00;99.90
22716;DHT22;11525;51.152;4.456;2023-05-21T06:38:35;17.70;99.90
22716;DHT22;11525;51.152;4.456;2023-05-21T06:41:01;17.60;99.90
22716;DHT22;11525;51.152;4.456;2023-05-21T06:43:28;17.80;99.90
22716;DHT22;11525;51.152;4.456;2023-05-21T06:45:53;18.30;99.90
22716;DHT22;11525;51.152;4.456;2023-05-21T06:48:19;18.40;99.90
22716;DHT22;11525;51.152;4.456;2023-05-21T06:50:45;18.70;99.90
22716;DHT22;11525;51.152;4.456;2023-05-21T06:53:11;18.70;99.90
22716;DHT22;11525;51.152;4.456;2023-05-21T06:55:38;18.60;99.90
22716;DHT22;11525;51.152;4.456;2023-05-21T06:58:03;18.50;99.90
22716;DHT22;11525;51.152;4.456;2023-05-21T07:00:29;18.80;99.90
22716;DHT22;11525;51.152;4.456;2023-05-21T07:02:55;19.10;99.90
22716;DHT22;11525;51.152;4.456;2023-05-21T07:05:20;19.20;99.90
22716;DHT22;11525;51.152;4.456;2023-05-21T07:07:46;19.10;99.90
22716;DHT22;11525;51.152;4.456;2023-05-21T07:10:12;19.40;99.90
22716;DHT22;11525;51.152;4.456;2023-05-21T07:12:37;19.80;99.90
22716;DHT22;11525;51.152;4.456;2023-05-21T07:15:05;19.80;99.90
22716;DHT22;11525;51.152;4.456;2023-05-21T07:17:31;20.10;99.90
22716;DHT22;11525;51.152;4.456;2023-05-21T07:19:56;20.30;99.90
22716;DHT22;11525;51.152;4.456;2023-05-21T07:22:22;21.10;99.90
22716;DHT22;11525;51.152;4.456;2023-05-21T07:24:48;21.60;99.90
22716;DHT22;11525;51.152;4.456;2023-05-21T07:27:13;22.30;99.90
22716;DHT22;11525;51.152;4.456;2023-05-21T07:29:39;22.90;99.90
22716;DHT22;11525;51.152;4.456;2023-05-21T07:32:05;23.60;99.90
22716;DHT22;11525;51.152;4.456;2023-05-21T07:34:31;23.00;99.90
22716;DHT22;11525;51.152;4.456;2023-05-21T07:36:57;23.60;99.90
22716;DHT22;11525;51.152;4.456;2023-05-21T07:39:23;23.50;99.90
22716;DHT22;11525;51.152;4.456;2023-05-21T07:41:48;23.30;99.90
22716;DHT22;11525;51.152;4.456;2023-05-21T07:44:14;24.10;99.90
22716;DHT22;11525;51.152;4.456;2023-05-21T07:46:40;24.90;99.70
22716;DHT22;11525;51.152;4.456;2023-05-21T07:49:05;25.20;98.10
22716;DHT22;11525;51.152;4.456;2023-05-21T07:51:32;24.80;98.40
22716;DHT22;11525;51.152;4.456;2023-05-21T07:53:57;24.80;97.60
22716;DHT22;11525;51.152;4.456;2023-05-21T07:56:23;24.60;97.90
22716;DHT22;11525;51.152;4.456;2023-05-21T07:58:49;24.70;98.30
22716;DHT22;11525;51.152;4.456;2023-05-21T08:01:14;25.60;96.40
22716;DHT22;11525;51.152;4.456;2023-05-21T08:03:40;25.80;95.60
22716;DHT22;11525;51.152;4.456;2023-05-21T08:06:06;26.20;95.10
22716;DHT22;11525;51.152;4.456;2023-05-21T08:08:31;27.20;93.10
22716;DHT22;11525;51.152;4.456;2023-05-21T08:10:57;27.00;92.20
22716;DHT22;11525;51.152;4.456;2023-05-21T08:13:23;26.60;92.50
22716;DHT22;11525;51.152;4.456;2023-05-21T08:15:48;26.70;92.30
22716;DHT22;11525;51.152;4.456;2023-05-21T08:18:14;26.80;91.80
22716;DHT22;11525;51.152;4.456;2023-05-21T08:20:42;27.00;91.20
22716;DHT22;11525;51.152;4.456;2023-05-21T08:23:07;28.10;90.90
22716;DHT22;11525;51.152;4.456;2023-05-21T08:25:33;29.80;86.60
22716;DHT22;11525;51.152;4.456;2023-05-21T08:27:59;31.30;77.60
22716;DHT22;11525;51.152;4.456;2023-05-21T08:30:24;30.20;77.30
22716;DHT22;11525;51.152;4.456;2023-05-21T08:32:50;30.40;77.20
22716;DHT22;11525;51.152;4.456;2023-05-21T08:35:16;29.60;76.80
22716;DHT22;11525;51.152;4.456;2023-05-21T08:37:41;28.60;77.20
22716;DHT22;11525;51.152;4.456;2023-05-21T08:40:08;28.20;80.10
22716;DHT22;11525;51.152;4.456;2023-05-21T08:42:39;27.70;81.40
22716;DHT22;11525;51.152;4.456;2023-05-21T08:45:08;27.80;81.90
22716;DHT22;11525;51.152;4.456;2023-05-21T08:47:35;28.20;81.60
22716;DHT22;11525;51.152;4.456;2023-05-21T08:50:07;28.40;80.10
22716;DHT22;11525;51.152;4.456;2023-05-21T08:52:34;27.90;81.10
22716;DHT22;11525;51.152;4.456;2023-05-21T08:55:02;27.40;82.00
22716;DHT22;11525;51.152;4.456;2023-05-21T08:57:29;27.40;81.90
22716;DHT22;11525;51.152;4.456;2023-05-21T08:59:56;28.10;82.60
22716;DHT22;11525;51.152;4.456;2023-05-21T09:02:22;29.30;77.60
22716;DHT22;11525;51.152;4.456;2023-05-21T09:04:50;29.70;76.40
22716;DHT22;11525;51.152;4.456;2023-05-21T09:07:24;29.80;74.60
22716;DHT22;11525;51.152;4.456;2023-05-21T09:09:54;30.00;73.60
22716;DHT22;11525;51.152;4.456;2023-05-21T09:12:21;31.00;73.30
22716;DHT22;11525;51.152;4.456;2023-05-21T09:14:48;30.70;68.70
22716;DHT22;11525;51.152;4.456;2023-05-21T09:17:14;30.80;71.30
22716;DHT22;11525;51.152;4.456;2023-05-21T09:20:11;31.30;69.40
22716;DHT22;11525;51.152;4.456;2023-05-21T09:22:43;30.20;71.50
22716;DHT22;11525;51.152;4.456;2023-05-21T09:25:11;30.10;70.30
22716;DHT22;11525;51.152;4.456;2023-05-21T09:27:37;30.70;69.60
22716;DHT22;11525;51.152;4.456;2023-05-21T09:30:09;29.00;73.10
22716;DHT22;11525;51.152;4.456;2023-05-21T09:32:35;28.40;75.20
22716;DHT22;11525;51.152;4.456;2023-05-21T09:37:41;28.20;76.70
22716;DHT22;11525;51.152;4.456;2023-05-21T09:40:20;27.80;78.10
22716;DHT22;11525;51.152;4.456;2023-05-21T09:42:48;28.70;77.50
22716;DHT22;11525;51.152;4.456;2023-05-21T09:45:21;29.50;74.40
22716;DHT22;11525;51.152;4.456;2023-05-21T09:47:48;30.00;72.60
22716;DHT22;11525;51.152;4.456;2023-05-21T09:50:21;29.80;73.00
22716;DHT22;11525;51.152;4.456;2023-05-21T09:52:48;30.00;73.30
22716;DHT22;11525;51.152;4.456;2023-05-21T09:55:17;30.60;72.00
22716;DHT22;11525;51.152;4.456;2023-05-21T09:57:45;31.70;68.80
22716;DHT22;11525;51.152;4.456;2023-05-21T10:02:47;32.30;66.10
22716;DHT22;11525;51.152;4.456;2023-05-21T10:05:14;32.50;63.90
22716;DHT22;11525;51.152;4.456;2023-05-21T10:07:50;31.00;66.20
22716;DHT22;11525;51.152;4.456;2023-05-21T10:10:19;31.20;67.90
22716;DHT22;11525;51.152;4.456;2023-05-21T10:12:47;30.90;67.20
22716;DHT22;11525;51.152;4.456;2023-05-21T10:15:21;28.60;73.10
22716;DHT22;11525;51.152;4.456;2023-05-21T10:17:48;28.90;74.50
22716;DHT22;11525;51.152;4.456;2023-05-21T10:20:15;29.20;71.80
22716;DHT22;11525;51.152;4.456;2023-05-21T10:22:49;29.70;71.10
22716;DHT22;11525;51.152;4.456;2023-05-21T10:25:15;29.00;72.00
22716;DHT22;11525;51.152;4.456;2023-05-21T10:27:41;28.90;72.40
22716;DHT22;11525;51.152;4.456;2023-05-21T10:30:07;29.70;71.30
22716;DHT22;11525;51.152;4.456;2023-05-21T10:32:33;30.40;69.80
22716;DHT22;11525;51.152;4.456;2023-05-21T10:35:00;30.80;70.50
22716;DHT22;11525;51.152;4.456;2023-05-21T10:37:27;30.30;68.20
22716;DHT22;11525;51.152;4.456;2023-05-21T10:39:53;29.00;72.20
22716;DHT22;11525;51.152;4.456;2023-05-21T11:00:45;26.30;83.00
22716;DHT22;11525;51.152;4.456;2023-05-21T11:03:12;25.40;86.40
22716;DHT22;11525;51.152;4.456;2023-05-21T11:05:39;25.20;89.50
22716;DHT22;11525;51.152;4.456;2023-05-21T11:08:36;25.40;89.90
22716;DHT22;11525;51.152;4.456;2023-05-21T11:11:03;25.30;90.20
22716;DHT22;11525;51.152;4.456;2023-05-21T11:13:44;25.10;89.80
22716;DHT22;11525;51.152;4.456;2023-05-21T11:16:14;24.80;90.90
22716;DHT22;11525;51.152;4.456;2023-05-21T11:21:10;24.80;92.30
22716;DHT22;11525;51.152;4.456;2023-05-21T11:23:57;24.60;92.10
22716;DHT22;11525;51.152;4.456;2023-05-21T11:26:25;24.90;91.80
22716;DHT22;11525;51.152;4.456;2023-05-21T11:31:29;24.10;92.70
22716;DHT22;11525;51.152;4.456;2023-05-21T11:34:11;23.50;94.90
22716;DHT22;11525;51.152;4.456;2023-05-21T11:36:39;23.60;96.10
22716;DHT22;11525;51.152;4.456;2023-05-21T11:39:16;24.00;95.40
22716;DHT22;11525;51.152;4.456;2023-05-21T11:41:58;24.10;95.40
22716;DHT22;11525;51.152;4.456;2023-05-21T11:44:45;24.10;95.50
22716;DHT22;11525;51.152;4.456;2023-05-21T11:47:16;23.90;96.30
22716;DHT22;11525;51.152;4.456;2023-05-21T11:49:45;24.00;96.10
22716;DHT22;11525;51.152;4.456;2023-05-21T11:52:12;24.10;95.70
22716;DHT22;11525;51.152;4.456;2023-05-21T11:54:49;24.20;95.60
22716;DHT22;11525;51.152;4.456;2023-05-21T11:57:17;23.90;96.00
22716;DHT22;11525;51.152;4.456;2023-05-21T11:59:47;24.00;96.00
22716;DHT22;11525;51.152;4.456;2023-05-21T12:02:16;23.70;97.70
22716;DHT22;11525;51.152;4.456;2023-05-21T12:04:44;23.80;98.10
22716;DHT22;11525;51.152;4.456;2023-05-21T12:07:10;24.30;97.10
22716;DHT22;11525;51.152;4.456;2023-05-21T12:09:44;24.20;96.80
22716;DHT22;11525;51.152;4.456;2023-05-21T12:12:12;24.50;96.70
22716;DHT22;11525;51.152;4.456;2023-05-21T12:14:41;24.50;95.60
22716;DHT22;11525;51.152;4.456;2023-05-21T12:17:07;24.20;96.60
22716;DHT22;11525;51.152;4.456;2023-05-21T12:19:36;23.90;97.70
22716;DHT22;11525;51.152;4.456;2023-05-21T12:22:03;23.90;98.20
22716;DHT22;11525;51.152;4.456;2023-05-21T12:24:30;23.90;97.40
22716;DHT22;11525;51.152;4.456;2023-05-21T12:27:00;24.10;97.50
22716;DHT22;11525;51.152;4.456;2023-05-21T12:29:30;24.30;96.60
22716;DHT22;11525;51.152;4.456;2023-05-21T12:31:59;24.30;97.10
22716;DHT22;11525;51.152;4.456;2023-05-21T12:37:08;24.50;97.30
22716;DHT22;11525;51.152;4.456;2023-05-21T12:39:40;24.70;96.70
22716;DHT22;11525;51.152;4.456;2023-05-21T12:42:08;24.30;97.10
22716;DHT22;11525;51.152;4.456;2023-05-21T12:44:33;24.00;98.40
22716;DHT22;11525;51.152;4.456;2023-05-21T12:46:59;24.10;98.80
22716;DHT22;11525;51.152;4.456;2023-05-21T12:49:38;24.10;98.20
22716;DHT22;11525;51.152;4.456;2023-05-21T12:52:07;24.20;97.90
22716;DHT22;11525;51.152;4.456;2023-05-21T12:54:35;24.20;97.90
22716;DHT22;11525;51.152;4.456;2023-05-21T12:57:09;24.10;98.80
22716;DHT22;11525;51.152;4.456;2023-05-21T13:00:05;24.30;99.00
22716;DHT22;11525;51.152;4.456;2023-05-21T13:02:38;24.50;98.10
22716;DHT22;11525;51.152;4.456;2023-05-21T13:05:06;24.60;98.40
22716;DHT22;11525;51.152;4.456;2023-05-21T13:07:33;24.40;97.90
22716;DHT22;11525;51.152;4.456;2023-05-21T13:10:00;24.50;97.20
22716;DHT22;11525;51.152;4.456;2023-05-21T13:12:28;24.20;98.40
22716;DHT22;11525;51.152;4.456;2023-05-21T13:14:55;23.90;98.50
22716;DHT22;11525;51.152;4.456;2023-05-21T13:17:22;23.80;99.00
22716;DHT22;11525;51.152;4.456;2023-05-21T13:22:32;24.70;98.80
22716;DHT22;11525;51.152;4.456;2023-05-21T13:25:03;25.00;97.60
22716;DHT22;11525;51.152;4.456;2023-05-21T13:27:28;25.10;97.10
22716;DHT22;11525;51.152;4.456;2023-05-21T13:29:54;24.60;97.40
22716;DHT22;11525;51.152;4.456;2023-05-21T13:32:21;24.30;98.60
22716;DHT22;11525;51.152;4.456;2023-05-21T13:34:47;24.40;98.90
22716;DHT22;11525;51.152;4.456;2023-05-21T13:37:13;24.60;98.70
22716;DHT22;11525;51.152;4.456;2023-05-21T13:39:39;24.70;98.40
22716;DHT22;11525;51.152;4.456;2023-05-21T13:42:05;24.40;99.10
22716;DHT22;11525;51.152;4.456;2023-05-21T13:44:31;24.10;99.20
22716;DHT22;11525;51.152;4.456;2023-05-21T13:47:01;24.10;99.80
22716;DHT22;11525;51.152;4.456;2023-05-21T13:49:27;24.20;99.90
22716;DHT22;11525;51.152;4.456;2023-05-21T13:51:52;24.30;99.70
22716;DHT22;11525;51.152;4.456;2023-05-21T13:54:18;24.50;99.70
22716;DHT22;11525;51.152;4.456;2023-05-21T13:56:44;24.70;98.60
22716;DHT22;11525;51.152;4.456;2023-05-21T13:59:10;24.40;99.40
22716;DHT22;11525;51.152;4.456;2023-05-21T14:01:35;24.60;99.70
22716;DHT22;11525;51.152;4.456;2023-05-21T14:04:01;24.40;99.50
22716;DHT22;11525;51.152;4.456;2023-05-21T14:06:30;24.40;99.90
22716;DHT22;11525;51.152;4.456;2023-05-21T14:08:59;24.60;99.70
22716;DHT22;11525;51.152;4.456;2023-05-21T14:11:26;24.60;99.20
22716;DHT22;11525;51.152;4.456;2023-05-21T14:13:52;24.30;99.60
22716;DHT22;11525;51.152;4.456;2023-05-21T14:16:19;24.20;99.90
22716;DHT22;11525;51.152;4.456;2023-05-21T14:18:44;24.10;99.90
22716;DHT22;11525;51.152;4.456;2023-05-21T14:21:10;24.10;99.90
22716;DHT22;11525;51.152;4.456;2023-05-21T14:23:36;24.00;99.90
22716;DHT22;11525;51.152;4.456;2023-05-21T14:26:02;23.70;99.90
22716;DHT22;11525;51.152;4.456;2023-05-21T14:28:27;23.70;99.90
22716;DHT22;11525;51.152;4.456;2023-05-21T14:30:53;24.00;99.90
22716;DHT22;11525;51.152;4.456;2023-05-21T14:33:18;24.40;99.90
22716;DHT22;11525;51.152;4.456;2023-05-21T14:35:44;24.30;99.90
22716;DHT22;11525;51.152;4.456;2023-05-21T14:38:12;24.30;99.90
22716;DHT22;11525;51.152;4.456;2023-05-21T14:40:38;24.00;99.90
22716;DHT22;11525;51.152;4.456;2023-05-21T14:43:04;24.20;99.90
22716;DHT22;11525;51.152;4.456;2023-05-21T14:45:31;24.30;99.90
22716;DHT22;11525;51.152;4.456;2023-05-21T14:48:03;24.30;99.90
22716;DHT22;11525;51.152;4.456;2023-05-21T14:50:36;24.30;99.90
22716;DHT22;11525;51.152;4.456;2023-05-21T14:53:06;23.90;99.90
22716;DHT22;11525;51.152;4.456;2023-05-21T14:55:33;24.10;99.90
22716;DHT22;11525;51.152;4.456;2023-05-21T14:58:03;24.10;99.90
22716;DHT22;11525;51.152;4.456;2023-05-21T15:00:29;23.90;99.90
22716;DHT22;11525;51.152;4.456;2023-05-21T15:02:56;24.00;99.90
22716;DHT22;11525;51.152;4.456;2023-05-21T15:05:22;24.10;99.90
22716;DHT22;11525;51.152;4.456;2023-05-21T15:07:48;24.30;99.90
22716;DHT22;11525;51.152;4.456;2023-05-21T15:10:14;24.40;99.90
22716;DHT22;11525;51.152;4.456;2023-05-21T15:12:39;24.60;99.90
22716;DHT22;11525;51.152;4.456;2023-05-21T15:15:07;24.40;99.90
22716;DHT22;11525;51.152;4.456;2023-05-21T15:17:33;24.20;99.90
22716;DHT22;11525;51.152;4.456;2023-05-21T15:19:59;23.90;99.90
22716;DHT22;11525;51.152;4.456;2023-05-21T15:22:32;23.50;99.90
22716;DHT22;11525;51.152;4.456;2023-05-21T15:24:58;23.30;99.90
22716;DHT22;11525;51.152;4.456;2023-05-21T15:27:24;23.10;99.90
22716;DHT22;11525;51.152;4.456;2023-05-21T15:29:50;23.10;99.90
22716;DHT22;11525;51.152;4.456;2023-05-21T15:32:17;23.20;99.90
22716;DHT22;11525;51.152;4.456;2023-05-21T15:34:43;23.30;99.90
22716;DHT22;11525;51.152;4.456;2023-05-21T15:37:08;23.50;99.90
22716;DHT22;11525;51.152;4.456;2023-05-21T15:39:34;23.50;99.90
22716;DHT22;11525;51.152;4.456;2023-05-21T15:42:00;23.70;99.90
22716;DHT22;11525;51.152;4.456;2023-05-21T15:44:25;23.80;99.90
22716;DHT22;11525;51.152;4.456;2023-05-21T15:46:51;23.80;99.90
22716;DHT22;11525;51.152;4.456;2023-05-21T15:49:19;23.70;99.90
22716;DHT22;11525;51.152;4.456;2023-05-21T15:51:47;23.80;99.90
22716;DHT22;11525;51.152;4.456;2023-05-21T15:54:13;24.00;99.90
22716;DHT22;11525;51.152;4.456;2023-05-21T15:56:40;24.10;99.90
22716;DHT22;11525;51.152;4.456;2023-05-21T15:59:06;23.70;99.90
22716;DHT22;11525;51.152;4.456;2023-05-21T16:01:32;23.60;99.90
22716;DHT22;11525;51.152;4.456;2023-05-21T16:03:58;23.70;99.90
22716;DHT22;11525;51.152;4.456;2023-05-21T16:06:24;23.80;99.90
22716;DHT22;11525;51.152;4.456;2023-05-21T16:08:50;23.60;99.90
22716;DHT22;11525;51.152;4.456;2023-05-21T16:11:15;23.60;99.90